Terminal Aerodrome Forecast
Issued by NWS Duluth, MN

Home | Current Version | Previous Version | Text Only | Print | Product List | Glossary On
Versions: 1 2 3 4 5 6 7 8 9 10 11 12 13 14 15 16 17 18 19 20 21 22 23 24 25
000
FTUS43 KDLH 191100
TAFINL
TAF
KINL 191137Z 1912/2012 VRB04KT P6SM VCSH OVC010
     FM191700 16005KT P6SM -SN OVC015
      TEMPO 1920/1924 4SM -SN OVC007=

USA.gov is the U.S. government's official web portal to all federal, state and local government web resources and services.